createdAt,value
2022-09-27T00:00:33.243Z,100
2022-09-27T00:01:47.727Z,100
2022-09-27T00:03:02.059Z,100
2022-09-27T00:04:15.398Z,100
2022-09-27T00:05:29.678Z,100
2022-09-27T00:06:44.084Z,100
2022-09-27T00:07:58.407Z,100
2022-09-27T00:09:12.685Z,100
2022-09-27T00:10:26.982Z,100
2022-09-27T00:11:41.373Z,100
2022-09-27T00:12:55.700Z,100
2022-09-27T00:14:09.994Z,100
2022-09-27T00:15:24.267Z,100
2022-09-27T00:16:38.684Z,100
2022-09-27T00:17:53.005Z,100
2022-09-27T00:19:07.272Z,100
2022-09-27T00:20:21.564Z,100
2022-09-27T00:21:35.971Z,100
2022-09-27T00:22:50.286Z,100
2022-09-27T00:24:04.560Z,100
2022-09-27T00:25:18.845Z,100
2022-09-27T00:26:33.264Z,100
2022-09-27T00:27:47.581Z,100
2022-09-27T00:29:01.868Z,100
2022-09-27T00:30:16.140Z,100
2022-09-27T00:31:30.540Z,100
2022-09-27T00:32:44.873Z,100
2022-09-27T00:33:59.154Z,100
2022-09-27T00:35:13.486Z,100
2022-09-27T00:36:27.905Z,100
2022-09-27T00:37:42.226Z,100
2022-09-27T00:38:55.578Z,100
2022-09-27T00:40:09.856Z,100
2022-09-27T00:41:24.273Z,100
2022-09-27T00:42:38.592Z,100
2022-09-27T00:43:52.875Z,100
2022-09-27T00:45:07.148Z,100
2022-09-27T00:46:21.562Z,100
2022-09-27T00:47:35.892Z,100
2022-09-27T00:48:50.163Z,100
2022-09-27T00:50:04.449Z,100
2022-09-27T00:51:18.864Z,100
2022-09-27T00:52:33.173Z,100
2022-09-27T00:53:47.464Z,100
2022-09-27T00:55:01.746Z,100
2022-09-27T00:56:16.140Z,100
2022-09-27T00:57:30.464Z,100
2022-09-27T00:58:44.746Z,100
2022-09-27T00:59:59.032Z,100
2022-09-27T01:01:13.430Z,100
2022-09-27T01:02:27.771Z,100
2022-09-27T01:03:42.035Z,100
2022-09-27T01:04:56.329Z,100
2022-09-27T01:07:25.061Z,100
2022-09-27T01:08:39.342Z,100
2022-09-27T01:09:53.674Z,100
2022-09-27T01:11:08.085Z,100
2022-09-27T01:12:22.426Z,100
2022-09-27T01:13:35.769Z,100
2022-09-27T01:14:50.047Z,100
2022-09-27T01:16:04.467Z,100
2022-09-27T01:17:18.782Z,100
2022-09-27T01:18:33.066Z,100
2022-09-27T01:19:47.337Z,100
2022-09-27T01:21:01.752Z,100
2022-09-27T01:22:16.069Z,100
2022-09-27T01:23:30.352Z,100
2022-09-27T01:24:44.626Z,100
2022-09-27T01:25:59.053Z,100
2022-09-27T01:27:13.366Z,100
2022-09-27T01:28:27.650Z,100
2022-09-27T01:29:41.929Z,100
2022-09-27T01:30:56.332Z,100
2022-09-27T01:32:10.668Z,100
2022-09-27T01:33:24.937Z,100
2022-09-27T01:34:39.226Z,100
2022-09-27T01:35:53.622Z,100
2022-09-27T01:37:07.949Z,100
2022-09-27T01:38:22.240Z,100
2022-09-27T01:39:36.518Z,100
2022-09-27T01:40:50.911Z,100
2022-09-27T01:42:05.244Z,100
2022-09-27T01:43:19.522Z,100
2022-09-27T01:44:33.871Z,100
2022-09-27T01:45:48.274Z,100
2022-09-27T01:47:02.598Z,100
2022-09-27T01:48:16.938Z,100
2022-09-27T01:49:30.296Z,100
2022-09-27T01:50:44.697Z,100
2022-09-27T01:51:59.032Z,100
2022-09-27T01:53:13.313Z,100
2022-09-27T01:54:27.579Z,100
2022-09-27T01:55:41.987Z,100
2022-09-27T01:56:56.314Z,100
2022-09-27T01:58:10.608Z,100
2022-09-27T01:59:24.875Z,100
2022-09-27T02:00:39.288Z,100
2022-09-27T02:01:53.607Z,100
2022-09-27T02:03:07.886Z,100
2022-09-27T02:04:22.174Z,100
2022-09-27T02:05:36.572Z,100
2022-09-27T02:06:50.903Z,100
2022-09-27T02:08:05.177Z,100
2022-09-27T02:09:19.463Z,100
2022-09-27T02:10:33.879Z,100
2022-09-27T02:11:48.198Z,100
2022-09-27T02:13:02.470Z,100
2022-09-27T02:14:16.761Z,100
2022-09-27T02:15:31.159Z,100
2022-09-27T02:16:45.496Z,100
2022-09-27T02:17:59.774Z,100
2022-09-27T02:19:14.055Z,100
2022-09-27T02:20:28.511Z,100
2022-09-27T02:21:42.843Z,100
2022-09-27T02:22:56.192Z,100
2022-09-27T02:24:10.488Z,100
2022-09-27T02:25:24.895Z,100
2022-09-27T02:26:39.206Z,100
2022-09-27T02:27:53.491Z,100
2022-09-27T02:29:07.763Z,100
2022-09-27T02:30:22.175Z,100
2022-09-27T02:31:36.505Z,100
2022-09-27T02:32:50.783Z,100
2022-09-27T02:34:05.061Z,100
2022-09-27T02:35:19.461Z,100
2022-09-27T02:36:33.801Z,100
2022-09-27T02:37:48.074Z,100
2022-09-27T02:39:02.344Z,100
2022-09-27T02:40:16.757Z,100
2022-09-27T02:41:31.095Z,100
2022-09-27T02:42:45.363Z,100
2022-09-27T02:43:59.655Z,100
2022-09-27T02:45:14.059Z,100
2022-09-27T02:46:28.373Z,100
2022-09-27T02:47:42.654Z,100
2022-09-27T02:48:56.944Z,100
2022-09-27T02:50:11.349Z,100
2022-09-27T02:51:25.665Z,100
2022-09-27T02:52:39.942Z,100
2022-09-27T02:53:54.289Z,100
2022-09-27T02:55:08.691Z,100
2022-09-27T02:56:23.028Z,100
2022-09-27T02:57:36.383Z,100
2022-09-27T02:58:50.655Z,100
2022-09-27T03:00:05.074Z,100
2022-09-27T03:01:19.397Z,100
2022-09-27T03:02:33.672Z,100
2022-09-27T03:03:47.953Z,100
2022-09-27T03:05:02.354Z,100
2022-09-27T03:06:16.693Z,100
2022-09-27T03:07:30.964Z,100
2022-09-27T03:08:45.245Z,100
2022-09-27T03:09:59.645Z,100
2022-09-27T03:11:13.972Z,100
2022-09-27T03:12:28.262Z,100
2022-09-27T03:13:42.544Z,100
2022-09-27T03:14:56.945Z,100
2022-09-27T03:16:11.263Z,100
2022-09-27T03:17:25.546Z,100
2022-09-27T03:18:39.829Z,100
2022-09-27T03:19:54.229Z,100
2022-09-27T03:21:08.569Z,100
2022-09-27T03:22:22.847Z,100
2022-09-27T03:23:37.124Z,100
2022-09-27T03:24:51.522Z,100
2022-09-27T03:26:05.844Z,100
2022-09-27T03:27:20.124Z,100
2022-09-27T03:28:34.472Z,100
2022-09-27T03:29:48.879Z,100
2022-09-27T03:31:03.217Z,100
2022-09-27T03:32:16.560Z,100
2022-09-27T03:33:30.839Z,100
2022-09-27T03:34:45.260Z,100
2022-09-27T03:35:59.576Z,100
2022-09-27T03:37:13.865Z,100
2022-09-27T03:38:28.136Z,100
2022-09-27T03:39:42.553Z,100
2022-09-27T03:40:56.873Z,100
2022-09-27T03:42:11.142Z,100
2022-09-27T03:43:25.431Z,100
2022-09-27T03:44:39.837Z,100
2022-09-27T03:45:54.155Z,100
2022-09-27T03:47:08.433Z,100
2022-09-27T03:48:22.727Z,100
2022-09-27T03:49:37.125Z,100
2022-09-27T03:50:51.448Z,100
2022-09-27T03:52:05.742Z,100
2022-09-27T03:53:20.012Z,100
2022-09-27T03:54:34.416Z,100
2022-09-27T03:55:48.753Z,100
2022-09-27T03:57:03.034Z,100
2022-09-27T03:58:17.303Z,100
2022-09-27T03:59:31.711Z,100
2022-09-27T04:00:46.034Z,100
2022-09-27T04:02:00.316Z,100
2022-09-27T04:03:14.662Z,100
2022-09-27T04:04:29.054Z,100
2022-09-27T04:05:43.394Z,100
2022-09-27T04:06:56.743Z,100
2022-09-27T04:08:11.025Z,100
2022-09-27T04:09:25.440Z,100
2022-09-27T04:10:39.759Z,100
2022-09-27T04:11:54.036Z,100
2022-09-27T04:13:08.311Z,100
2022-09-27T04:14:22.727Z,100
2022-09-27T04:15:37.042Z,100
2022-09-27T04:16:51.337Z,100
2022-09-27T04:18:05.614Z,100
2022-09-27T04:19:20.020Z,100
2022-09-27T04:20:34.350Z,100
2022-09-27T04:21:48.624Z,100
2022-09-27T04:23:02.897Z,100
2022-09-27T04:24:17.307Z,100
2022-09-27T04:25:31.633Z,100
2022-09-27T04:26:45.918Z,100
2022-09-27T04:28:00.194Z,100
2022-09-27T04:29:14.603Z,100
2022-09-27T04:30:28.934Z,100
2022-09-27T04:31:43.218Z,100
2022-09-27T04:32:57.487Z,100
2022-09-27T04:34:11.887Z,100
2022-09-27T04:35:26.231Z,100
2022-09-27T04:36:40.000Z,100
2022-09-27T04:37:54.849Z,100
2022-09-27T04:39:09.244Z,100
2022-09-27T04:40:23.582Z,100
2022-09-27T04:41:36.928Z,100
2022-09-27T04:42:51.213Z,100
2022-09-27T04:44:05.619Z,100
2022-09-27T04:45:19.938Z,100
2022-09-27T04:46:34.236Z,100
2022-09-27T04:47:48.456Z,100
2022-09-27T04:49:02.771Z,100
2022-09-27T04:50:16.997Z,100
2022-09-27T04:51:31.231Z,100
2022-09-27T04:52:45.459Z,100
2022-09-27T04:53:59.685Z,100
2022-09-27T04:55:14.094Z,100
2022-09-27T04:56:28.342Z,100
2022-09-27T04:57:42.560Z,100
2022-09-27T04:58:56.778Z,100
2022-09-27T05:00:11.014Z,100
2022-09-27T05:01:25.320Z,100
2022-09-27T05:02:39.554Z,100
2022-09-27T05:03:53.774Z,100
2022-09-27T05:05:08.006Z,100
2022-09-27T05:06:22.227Z,100
2022-09-27T05:07:36.539Z,100
2022-09-27T05:08:50.777Z,100
2022-09-27T05:10:05.008Z,100
2022-09-27T05:11:19.227Z,100
2022-09-27T05:12:33.507Z,100
2022-09-27T05:13:47.807Z,100
2022-09-27T05:15:02.104Z,100
2022-09-27T05:16:15.393Z,100
2022-09-27T05:17:29.614Z,100
2022-09-27T05:18:43.921Z,100
2022-09-27T05:19:58.159Z,100
2022-09-27T05:21:12.379Z,100
2022-09-27T05:22:26.616Z,100
2022-09-27T05:23:40.834Z,100
2022-09-27T05:24:55.130Z,100
2022-09-27T05:26:09.382Z,100
2022-09-27T05:27:23.600Z,100
2022-09-27T05:28:37.837Z,100
2022-09-27T05:29:52.061Z,100
2022-09-27T05:31:06.356Z,100
2022-09-27T05:32:20.593Z,100
2022-09-27T05:33:34.827Z,100
2022-09-27T05:34:49.046Z,100
2022-09-27T05:36:03.288Z,100
2022-09-27T05:37:17.585Z,100
2022-09-27T05:38:31.825Z,100
2022-09-27T05:39:46.055Z,100
2022-09-27T05:41:00.268Z,100
2022-09-27T05:42:14.000Z,100
2022-09-27T05:43:28.804Z,100
2022-09-27T05:44:43.048Z,100
2022-09-27T05:45:57.264Z,100
2022-09-27T05:47:11.547Z,100
2022-09-27T05:48:24.856Z,100
2022-09-27T05:49:39.098Z,100
2022-09-27T05:50:53.308Z,100
2022-09-27T05:52:07.000Z,100
2022-09-27T05:53:21.773Z,100
2022-09-27T05:54:36.078Z,100
2022-09-27T05:55:50.306Z,100
2022-09-27T05:57:04.537Z,100
2022-09-27T05:58:18.762Z,100
2022-09-27T05:59:32.992Z,100
2022-09-27T06:00:47.297Z,100
2022-09-27T06:02:01.532Z,100
2022-09-27T06:03:15.757Z,100
2022-09-27T06:04:29.980Z,100
2022-09-27T06:05:44.219Z,100
2022-09-27T06:06:58.518Z,100
2022-09-27T06:08:12.754Z,100
2022-09-27T06:09:26.976Z,100
2022-09-27T06:10:41.212Z,100
2022-09-27T06:11:55.439Z,100
2022-09-27T06:13:09.743Z,100
2022-09-27T06:14:23.983Z,100
2022-09-27T06:15:38.198Z,100
2022-09-27T06:16:52.433Z,100
2022-09-27T06:18:06.655Z,100
2022-09-27T06:19:21.012Z,100
2022-09-27T06:20:35.289Z,100
2022-09-27T06:21:48.590Z,100
2022-09-27T06:23:02.825Z,100
2022-09-27T06:24:17.127Z,100
2022-09-27T06:25:31.370Z,99.8
2022-09-27T06:26:45.587Z,99.8
2022-09-27T06:27:59.819Z,100
2022-09-27T06:29:14.047Z,99.8
2022-09-27T06:30:28.337Z,99.3
2022-09-27T06:31:42.584Z,99.2
2022-09-27T06:32:56.809Z,99.1
2022-09-27T06:34:11.040Z,99.4
2022-09-27T06:35:25.268Z,99.2
2022-09-27T06:36:39.559Z,99
2022-09-27T06:37:53.805Z,98.8
2022-09-27T06:39:08.036Z,99.2
2022-09-27T06:40:22.247Z,99.5
2022-09-27T06:41:36.472Z,99.3
2022-09-27T06:42:50.787Z,99.2
2022-09-27T06:44:05.024Z,99.3
2022-09-27T06:45:19.244Z,99
2022-09-27T06:46:33.477Z,98.6
2022-09-27T06:47:47.697Z,98.3
2022-09-27T06:49:02.012Z,98.5
2022-09-27T06:50:16.237Z,98
2022-09-27T06:51:30.468Z,98.3
2022-09-27T06:52:44.764Z,98.1
2022-09-27T06:53:58.091Z,96.8
2022-09-27T06:55:12.382Z,96.8
2022-09-27T06:56:25.666Z,96.3
2022-09-27T06:57:39.903Z,95.7
2022-09-27T06:58:54.191Z,96.3
2022-09-27T07:00:08.443Z,97
2022-09-27T07:01:22.667Z,96.7
2022-09-27T07:02:36.895Z,96.2
2022-09-27T07:03:51.109Z,96.3
2022-09-27T07:05:05.421Z,97.3
2022-09-27T07:06:19.659Z,97.2
2022-09-27T07:07:33.883Z,97.1
2022-09-27T07:08:48.105Z,97.4
2022-09-27T07:10:02.334Z,97
2022-09-27T07:11:16.638Z,97.1
2022-09-27T07:12:30.878Z,96.9
2022-09-27T07:13:45.101Z,96.6
2022-09-27T07:14:59.327Z,96.3
2022-09-27T07:16:13.555Z,95.7
2022-09-27T07:17:27.864Z,95.8
2022-09-27T07:18:42.097Z,94.6
2022-09-27T07:19:56.319Z,94.4
2022-09-27T07:21:10.559Z,94.5
2022-09-27T07:22:24.780Z,95.3
2022-09-27T07:23:39.072Z,95.3
2022-09-27T07:24:53.322Z,94.8
2022-09-27T07:26:07.545Z,94.4
2022-09-27T07:27:21.826Z,95.5
2022-09-27T07:28:35.171Z,95.3
2022-09-27T07:29:49.439Z,94.6
2022-09-27T07:31:02.744Z,94.1
2022-09-27T07:32:16.965Z,94.3
2022-09-27T07:33:31.259Z,95.2
2022-09-27T07:34:45.516Z,94.8
2022-09-27T07:35:59.731Z,95.1
2022-09-27T07:37:13.959Z,94.8
2022-09-27T07:38:28.186Z,94.8
2022-09-27T07:39:42.499Z,95.1
2022-09-27T07:40:56.727Z,94.9
2022-09-27T07:42:10.962Z,93.8
2022-09-27T07:43:25.183Z,93
2022-09-27T07:44:39.415Z,92.9
2022-09-27T07:45:53.705Z,94.1
2022-09-27T07:47:07.952Z,93.2
2022-09-27T07:48:22.188Z,92.4
2022-09-27T07:49:36.408Z,92.6
2022-09-27T07:50:50.641Z,92.3
2022-09-27T07:52:04.939Z,92.3
2022-09-27T07:53:19.180Z,92.8
2022-09-27T07:54:33.407Z,92.7
2022-09-27T07:55:47.636Z,92.7
2022-09-27T07:57:01.848Z,90.8
2022-09-27T07:58:16.153Z,90.8
2022-09-27T07:59:30.389Z,89.8
2022-09-27T08:00:44.622Z,88.8
2022-09-27T08:01:58.908Z,88.4
2022-09-27T08:03:12.206Z,89.5
2022-09-27T08:04:26.444Z,90.3
2022-09-27T08:05:40.678Z,90
2022-09-27T08:06:54.897Z,89.6
2022-09-27T08:08:09.133Z,90
2022-09-27T08:09:23.430Z,89.5
2022-09-27T08:10:37.673Z,89.1
2022-09-27T08:11:51.886Z,88.3
2022-09-27T08:13:06.126Z,88.9
2022-09-27T08:14:20.341Z,89.8
2022-09-27T08:15:34.637Z,89.2
2022-09-27T08:16:48.878Z,87.2
2022-09-27T08:18:03.123Z,86.3
2022-09-27T08:19:17.349Z,87.5
2022-09-27T08:20:31.562Z,84.5
2022-09-27T08:21:45.874Z,84.5
2022-09-27T08:23:00.113Z,84.2
2022-09-27T08:24:14.332Z,81.8
2022-09-27T08:25:28.555Z,80.2
2022-09-27T08:26:42.790Z,82
2022-09-27T08:27:57.095Z,84.4
2022-09-27T08:29:11.320Z,81.9
2022-09-27T08:30:25.548Z,81.3
2022-09-27T08:31:39.788Z,83.5
2022-09-27T08:32:54.000Z,84.2
2022-09-27T08:34:08.363Z,76.5
2022-09-27T08:35:22.656Z,75.5
2022-09-27T08:36:35.980Z,75.8
2022-09-27T08:37:49.278Z,78.3
2022-09-27T08:39:03.522Z,82.7
2022-09-27T08:40:17.745Z,76.7
2022-09-27T08:41:31.979Z,76.1
2022-09-27T08:42:46.197Z,78.9
2022-09-27T08:45:14.746Z,78.7
2022-09-27T08:46:28.955Z,78.3
2022-09-27T08:47:43.189Z,76.4
2022-09-27T08:48:57.409Z,69.5
2022-09-27T08:50:11.718Z,72.3
2022-09-27T08:51:25.964Z,72.4
2022-09-27T08:52:40.190Z,72.7
2022-09-27T08:53:54.415Z,72.5
2022-09-27T08:55:08.638Z,69.7
2022-09-27T08:56:22.935Z,71.5
2022-09-27T08:57:37.172Z,73.3
2022-09-27T08:58:51.411Z,73.9
2022-09-27T09:00:05.634Z,71.7
2022-09-27T09:01:19.860Z,73
2022-09-27T09:02:34.157Z,72.3
2022-09-27T09:03:48.402Z,71.3
2022-09-27T09:05:02.634Z,73.6
2022-09-27T09:06:16.852Z,75
2022-09-27T09:07:31.083Z,78.3
2022-09-27T09:08:45.436Z,78.2
2022-09-27T09:09:59.723Z,77.5
2022-09-27T09:11:13.061Z,78.8
2022-09-27T09:12:27.327Z,77.1
2022-09-27T09:13:41.641Z,77.4
2022-09-27T09:14:55.911Z,78.3
2022-09-27T09:16:09.211Z,80.7
2022-09-27T09:17:23.446Z,80.5
2022-09-27T09:18:37.736Z,80.9
2022-09-27T09:19:51.986Z,82.5
2022-09-27T09:21:06.211Z,83.2
2022-09-27T09:22:20.429Z,82.3
2022-09-27T09:24:48.962Z,80.6
2022-09-27T09:26:03.205Z,81.6
2022-09-27T09:27:17.419Z,80.3
2022-09-27T09:28:31.659Z,81.1
2022-09-27T09:29:45.883Z,80.8
2022-09-27T09:31:00.170Z,80.8
2022-09-27T09:32:14.418Z,81.2
2022-09-27T09:33:28.645Z,81.7
2022-09-27T09:34:42.883Z,82.3
2022-09-27T09:35:57.099Z,84.1
2022-09-27T09:37:11.400Z,83.1
2022-09-27T09:38:25.634Z,85.1
2022-09-27T09:39:39.870Z,86
2022-09-27T09:40:54.099Z,84.6
2022-09-27T09:42:08.325Z,86.8
2022-09-27T09:43:22.622Z,88.9
2022-09-27T09:44:36.861Z,88.1
2022-09-27T09:45:51.080Z,88.6
2022-09-27T09:47:05.367Z,89.4
2022-09-27T09:48:18.704Z,89
2022-09-27T09:49:32.988Z,87.8
2022-09-27T09:50:46.282Z,87.2
2022-09-27T09:52:00.510Z,87.2
2022-09-27T09:53:14.806Z,87.2
2022-09-27T09:54:29.047Z,86.5
2022-09-27T09:55:43.284Z,85.3
2022-09-27T09:56:57.502Z,88.9
2022-09-27T09:58:11.735Z,87.7
2022-09-27T09:59:26.038Z,85.1
2022-09-27T10:00:40.265Z,86
2022-09-27T10:01:54.490Z,87.1
2022-09-27T10:03:08.725Z,84.9
2022-09-27T10:04:22.958Z,83
2022-09-27T10:05:37.243Z,83.8
2022-09-27T10:06:51.502Z,77.3
2022-09-27T10:08:05.731Z,79
2022-09-27T10:09:19.954Z,75.8
2022-09-27T10:10:34.190Z,73.3
2022-09-27T10:11:48.482Z,71.8
2022-09-27T10:13:02.719Z,72
2022-09-27T10:14:16.949Z,68.3
2022-09-27T10:15:31.179Z,71
2022-09-27T10:16:45.399Z,71.4
2022-09-27T10:17:59.696Z,69.1
2022-09-27T10:19:13.951Z,67.9
2022-09-27T10:20:28.163Z,67.9
2022-09-27T10:21:42.449Z,70
2022-09-27T10:22:55.789Z,68.8
2022-09-27T10:24:10.071Z,72.8
2022-09-27T10:25:23.366Z,72.3
2022-09-27T10:26:37.606Z,75.6
2022-09-27T10:27:51.903Z,77.5
2022-09-27T10:29:06.147Z,77.6
2022-09-27T10:30:20.361Z,77.8
2022-09-27T10:31:34.589Z,78.1
2022-09-27T10:32:48.821Z,81.3
2022-09-27T10:34:03.124Z,80.8
2022-09-27T10:35:17.370Z,79.9
2022-09-27T10:36:31.583Z,78.9
2022-09-27T10:37:45.822Z,80.3
2022-09-27T10:39:00.048Z,78.7
2022-09-27T10:40:14.352Z,79.9
2022-09-27T10:41:28.583Z,79.6
2022-09-27T10:42:42.819Z,80.4
2022-09-27T10:43:57.041Z,79
2022-09-27T10:45:11.261Z,75.3
2022-09-27T10:46:25.568Z,75.1
2022-09-27T10:47:39.795Z,78.4
2022-09-27T10:48:54.031Z,76.2
2022-09-27T10:50:08.250Z,69.9
2022-09-27T10:51:22.491Z,72
2022-09-27T10:52:36.787Z,71.5
2022-09-27T10:53:51.032Z,71
2022-09-27T10:55:05.253Z,70.6
2022-09-27T10:56:19.535Z,68
2022-09-27T10:57:32.832Z,71.2
2022-09-27T10:58:47.076Z,66.5
2022-09-27T11:00:01.288Z,64.4
2022-09-27T11:01:15.522Z,64.8
2022-09-27T11:02:29.759Z,64
2022-09-27T11:03:44.050Z,66
2022-09-27T11:04:58.296Z,63.4
2022-09-27T11:06:12.515Z,66.1
2022-09-27T11:07:26.743Z,62.9
2022-09-27T11:08:40.963Z,65.4
2022-09-27T11:09:55.264Z,68.2
2022-09-27T11:11:09.504Z,70
2022-09-27T11:12:23.741Z,71
2022-09-27T11:13:37.963Z,73
2022-09-27T11:14:52.190Z,75.5
2022-09-27T11:16:06.500Z,76.6
2022-09-27T11:17:20.732Z,77.4
2022-09-27T11:18:34.953Z,76.6
2022-09-27T11:19:49.175Z,79.6
2022-09-27T11:21:03.417Z,81.3
2022-09-27T11:22:17.704Z,85.5
2022-09-27T11:23:31.954Z,86.4
2022-09-27T11:24:46.180Z,89.4
2022-09-27T11:26:00.398Z,90.7
2022-09-27T11:27:14.640Z,88.8
2022-09-27T11:28:28.981Z,88.6
2022-09-27T11:29:43.271Z,87.6
2022-09-27T11:30:56.570Z,88.4
2022-09-27T11:32:10.794Z,87.1
2022-09-27T11:33:25.099Z,87
2022-09-27T11:34:39.341Z,82.3
2022-09-27T11:35:53.554Z,80.1
2022-09-27T11:37:07.797Z,77.5
2022-09-27T11:38:22.013Z,78
2022-09-27T11:39:36.314Z,80.8
2022-09-27T11:40:50.567Z,74.2
2022-09-27T11:42:04.784Z,71.4
2022-09-27T11:43:19.002Z,70
2022-09-27T11:44:33.242Z,70.6
2022-09-27T11:45:47.538Z,72.4
2022-09-27T11:47:01.771Z,77
2022-09-27T11:48:15.999Z,77.2
2022-09-27T11:49:30.230Z,79.5
2022-09-27T11:50:44.461Z,83.1
2022-09-27T11:51:58.748Z,82.4
2022-09-27T11:53:12.997Z,85.1
2022-09-27T11:54:27.221Z,87.3
2022-09-27T11:55:41.454Z,88.3
2022-09-27T11:56:55.667Z,90
2022-09-27T11:58:09.971Z,88.7
2022-09-27T11:59:24.228Z,86.2
2022-09-27T12:00:38.445Z,88.6
2022-09-27T12:01:52.731Z,87.2
2022-09-27T12:03:06.063Z,87.9
2022-09-27T12:04:20.343Z,86.7
2022-09-27T12:05:33.641Z,87.4
2022-09-27T12:06:47.861Z,87
2022-09-27T12:08:02.163Z,88.9
2022-09-27T12:09:16.406Z,88.8
2022-09-27T12:10:30.634Z,89.2
2022-09-27T12:11:44.865Z,89.9
2022-09-27T12:12:59.088Z,86.9
2022-09-27T12:14:13.380Z,87.8
2022-09-27T12:15:27.622Z,82.6
2022-09-27T12:16:41.846Z,77.3
2022-09-27T12:19:10.311Z,75.1
2022-09-27T12:21:38.845Z,71.2
2022-09-27T12:22:53.065Z,73.8
2022-09-27T12:24:07.306Z,75.9
2022-09-27T12:25:21.535Z,77.8
2022-09-27T12:26:35.818Z,76.8
2022-09-27T12:27:50.071Z,76.1
2022-09-27T12:29:04.302Z,73.3
2022-09-27T12:30:18.529Z,70.1
2022-09-27T12:31:32.743Z,64
2022-09-27T12:32:47.045Z,65.5
2022-09-27T12:34:01.288Z,63.8
2022-09-27T12:35:15.520Z,62.8
2022-09-27T12:36:29.799Z,65
2022-09-27T12:37:43.132Z,67.6
2022-09-27T12:38:57.416Z,70.2
2022-09-27T12:40:10.703Z,69.1
2022-09-27T12:41:24.929Z,68.6
2022-09-27T12:42:39.239Z,69.6
2022-09-27T12:43:53.478Z,70.1
2022-09-27T12:45:07.000Z,70.8
2022-09-27T12:46:21.925Z,71.8
2022-09-27T12:47:36.161Z,71.2
2022-09-27T12:48:50.462Z,72.5
2022-09-27T12:50:04.699Z,69.6
2022-09-27T12:51:18.932Z,70.6
2022-09-27T12:52:33.156Z,70
2022-09-27T12:53:47.371Z,62.5
2022-09-27T12:55:01.677Z,62.9
2022-09-27T12:56:15.918Z,63.1
2022-09-27T12:57:30.135Z,61.1
2022-09-27T12:58:44.363Z,63.8
2022-09-27T12:59:58.591Z,61.6
2022-09-27T13:01:12.891Z,62.3
2022-09-27T13:02:27.135Z,64.5
2022-09-27T13:03:41.366Z,65
2022-09-27T13:04:55.595Z,60.5
2022-09-27T13:06:09.820Z,59.9
2022-09-27T13:07:24.114Z,63.6
2022-09-27T13:08:38.356Z,65.2
2022-09-27T13:09:52.589Z,64.5
2022-09-27T13:11:06.870Z,63
2022-09-27T13:12:20.167Z,62.3
2022-09-27T13:13:34.399Z,63.1
2022-09-27T13:14:48.643Z,61
2022-09-27T13:16:02.859Z,59.4
2022-09-27T13:17:17.077Z,56.6
2022-09-27T13:18:31.385Z,56.5
2022-09-27T13:19:45.637Z,60.1
2022-09-27T13:20:59.852Z,60.8
2022-09-27T13:22:14.080Z,59.3
2022-09-27T13:23:28.305Z,59.6
2022-09-27T13:24:42.615Z,57.6
2022-09-27T13:25:56.856Z,62.6
2022-09-27T13:27:11.076Z,63.1
2022-09-27T13:28:25.301Z,61.9
2022-09-27T13:29:39.524Z,65.7
2022-09-27T13:30:53.827Z,64.9
2022-09-27T13:32:08.069Z,66
2022-09-27T13:33:22.305Z,65.8
2022-09-27T13:34:36.526Z,66.8
2022-09-27T13:35:50.743Z,68.3
2022-09-27T13:37:05.055Z,69.4
2022-09-27T13:38:19.278Z,68
2022-09-27T13:39:33.523Z,68.8
2022-09-27T13:40:47.748Z,69.5
2022-09-27T13:42:01.959Z,67.3
2022-09-27T13:43:16.325Z,68.1
2022-09-27T13:44:30.600Z,65.7
2022-09-27T13:45:43.903Z,65.9
2022-09-27T13:48:12.437Z,64.8
2022-09-27T13:49:26.675Z,62.8
2022-09-27T13:50:40.908Z,65.2
2022-09-27T13:51:55.121Z,62.5
2022-09-27T13:53:09.343Z,66
2022-09-27T13:54:23.643Z,68.8
2022-09-27T13:55:37.886Z,68.9
2022-09-27T13:56:52.128Z,70.3
2022-09-27T13:58:06.336Z,71.9
2022-09-27T13:59:20.563Z,71.2
2022-09-27T14:00:34.870Z,71.8
2022-09-27T14:01:49.108Z,68.7
2022-09-27T14:03:03.344Z,66.8
2022-09-27T14:04:17.566Z,67.8
2022-09-27T14:05:31.797Z,68.3
2022-09-27T14:06:46.097Z,68.9
2022-09-27T14:08:00.336Z,67.6
2022-09-27T14:09:14.565Z,66.1
2022-09-27T14:10:28.776Z,66.7
2022-09-27T14:11:43.002Z,69
2022-09-27T14:12:57.307Z,70.7
2022-09-27T14:14:11.551Z,70.1
2022-09-27T14:15:25.786Z,70.9
2022-09-27T14:16:40.059Z,72.2
2022-09-27T14:17:53.400Z,72.8
2022-09-27T14:19:07.674Z,71.4
2022-09-27T14:20:20.971Z,72
2022-09-27T14:21:35.205Z,71.9
2022-09-27T14:22:49.499Z,72
2022-09-27T14:24:03.745Z,71.9
2022-09-27T14:25:17.966Z,71.2
2022-09-27T14:26:32.204Z,72.6
2022-09-27T14:27:46.420Z,71.1
2022-09-27T14:29:00.718Z,71.7
2022-09-27T14:30:14.972Z,70
2022-09-27T14:31:29.195Z,72.5
2022-09-27T14:32:43.409Z,73.3
2022-09-27T14:33:57.645Z,74.3
2022-09-27T14:35:11.947Z,75.4
2022-09-27T14:36:26.177Z,77
2022-09-27T14:37:40.417Z,77.9
2022-09-27T14:38:54.638Z,78.3
2022-09-27T14:40:08.852Z,77.2
2022-09-27T14:41:23.166Z,77
2022-09-27T14:42:37.410Z,78.2
2022-09-27T14:43:51.620Z,78.5
2022-09-27T14:45:05.852Z,78.5
2022-09-27T14:46:20.078Z,77.9
2022-09-27T14:47:34.391Z,79.2
2022-09-27T14:48:48.618Z,77.7
2022-09-27T14:50:02.857Z,78.7
2022-09-27T14:51:17.132Z,75.8
2022-09-27T14:52:30.477Z,75
2022-09-27T14:53:44.763Z,75.3
2022-09-27T14:54:58.049Z,76.3
2022-09-27T14:56:12.274Z,74.7
2022-09-27T14:57:26.591Z,73.8
2022-09-27T14:58:40.827Z,72.5
2022-09-27T14:59:55.059Z,72.9
2022-09-27T15:01:09.276Z,72.1
2022-09-27T15:02:23.512Z,72.6
2022-09-27T15:03:37.813Z,74.3
2022-09-27T15:04:52.035Z,73.3
2022-09-27T15:06:06.266Z,73.1
2022-09-27T15:07:20.501Z,73.2
2022-09-27T15:08:34.732Z,73.2
2022-09-27T15:09:49.018Z,73.8
2022-09-27T15:11:03.264Z,75.3
2022-09-27T15:12:17.491Z,75.4
2022-09-27T15:13:31.726Z,75
2022-09-27T15:14:45.937Z,74.9
2022-09-27T15:16:00.243Z,75
2022-09-27T15:17:14.482Z,74.9
2022-09-27T15:18:28.000Z,74.4
2022-09-27T15:19:42.931Z,75.3
2022-09-27T15:20:57.172Z,75.5
2022-09-27T15:22:11.454Z,77.1
2022-09-27T15:23:25.707Z,75.4
2022-09-27T15:24:39.936Z,76.4
2022-09-27T15:25:54.222Z,75.2
2022-09-27T15:27:07.505Z,76.2
2022-09-27T15:28:21.748Z,75.7
2022-09-27T15:29:35.976Z,76.2
2022-09-27T15:30:50.214Z,76.3
2022-09-27T15:32:04.426Z,78.3
2022-09-27T15:33:18.732Z,77.8
2022-09-27T15:34:32.982Z,76
2022-09-27T15:37:01.422Z,76.6
2022-09-27T15:38:15.646Z,77.7
2022-09-27T15:39:29.944Z,76.3
2022-09-27T15:40:44.190Z,76.1
2022-09-27T15:41:58.416Z,74.8
2022-09-27T15:43:12.648Z,75.3
2022-09-27T15:44:26.865Z,75.3
2022-09-27T15:45:41.179Z,75.8
2022-09-27T15:46:55.416Z,75.7
2022-09-27T15:48:09.640Z,76.3
2022-09-27T15:49:23.866Z,75.5
2022-09-27T15:51:52.394Z,76.1
2022-09-27T15:53:06.628Z,76.9
2022-09-27T15:54:20.864Z,76.7
2022-09-27T15:55:35.090Z,75.2
2022-09-27T15:56:49.316Z,75.4
2022-09-27T15:58:03.674Z,76
2022-09-27T15:59:17.948Z,75.2
2022-09-27T16:00:31.250Z,75.1
2022-09-27T16:01:45.470Z,75.7
2022-09-27T16:02:59.772Z,76.3
2022-09-27T16:04:14.008Z,75.6
2022-09-27T16:05:28.246Z,77.1
2022-09-27T16:06:42.460Z,75.2
2022-09-27T16:07:56.699Z,76.4
2022-09-27T16:09:11.003Z,75.9
2022-09-27T16:10:25.234Z,75.7
2022-09-27T16:11:39.469Z,76.3
2022-09-27T16:12:53.679Z,76.1
2022-09-27T16:14:07.924Z,76.4
2022-09-27T16:15:22.219Z,77
2022-09-27T16:16:36.463Z,77.3
2022-09-27T16:17:50.675Z,77
2022-09-27T16:19:04.913Z,76.5
2022-09-27T16:20:19.137Z,77.1
2022-09-27T16:21:33.444Z,76.4
2022-09-27T16:22:47.672Z,76.9
2022-09-27T16:24:01.900Z,77.8
2022-09-27T16:25:16.133Z,78.1
2022-09-27T16:26:30.359Z,78.5
2022-09-27T16:27:44.653Z,78.8
2022-09-27T16:28:58.892Z,78.4
2022-09-27T16:30:13.127Z,79.4
2022-09-27T16:31:27.000Z,79.5
2022-09-27T16:32:40.730Z,79.2
2022-09-27T16:33:55.029Z,79
2022-09-27T16:35:08.315Z,78.6
2022-09-27T16:36:22.546Z,79.3
2022-09-27T16:37:36.847Z,79.7
2022-09-27T16:38:51.093Z,78.9
2022-09-27T16:40:05.309Z,79.1
2022-09-27T16:41:19.539Z,80.3
2022-09-27T16:42:33.762Z,80.1
2022-09-27T16:43:48.055Z,79.8
2022-09-27T16:45:02.293Z,80.4
2022-09-27T16:46:16.526Z,80.9
2022-09-27T16:47:30.763Z,81.9
2022-09-27T16:48:44.971Z,82.3
2022-09-27T16:49:59.290Z,81.4
2022-09-27T16:51:13.523Z,82.5
2022-09-27T16:52:27.755Z,82.5
2022-09-27T16:53:41.982Z,81.9
2022-09-27T16:54:56.204Z,83.3